Time;durP1;ratioP1;P1;durP2;ratioP2;P2;SDS_P1;SDS_P2;PMS_P1;PMS_P2;Temp;Humidity;BMP_temperature;BMP_pressure;BME280_temperature;BME280_humidity;BME280_pressure;Samples;Min_cycle;Max_cycle;Signal;HPM_P1;HPM_P2
2022/03/01 00:01:54;;;;;;;9.18;6.22;;;-2.10;94.70;;;;;;4999257;28;20042;-59
2022/03/01 00:04:21;;;;;;;9.77;6.95;;;-2.30;94.50;;;;;;4994394;28;20524;-59
2022/03/01 00:06:46;;;;;;;15.77;8.13;;;-2.40;95.00;;;;;;4997857;28;20033;-59
2022/03/01 00:09:12;;;;;;;11.85;6.88;;;-2.50;97.60;;;;;;5015953;28;20512;-60
2022/03/01 00:11:38;;;;;;;13.27;7.50;;;-2.50;98.80;;;;;;4999786;28;20030;-62
2022/03/01 00:14:05;;;;;;;11.43;6.72;;;-2.50;98.90;;;;;;4999505;28;20037;-60
2022/03/01 00:16:31;;;;;;;11.95;8.02;;;-2.50;99.80;;;;;;4996610;28;20088;-60
2022/03/01 00:18:57;;;;;;;11.73;8.13;;;-2.50;99.60;;;;;;4995358;28;20034;-58
2022/03/01 00:21:24;;;;;;;11.85;6.75;;;-2.50;99.50;;;;;;4995434;28;20909;-58
2022/03/01 00:23:50;;;;;;;9.70;7.85;;;-2.50;99.20;;;;;;4996658;28;20081;-58
2022/03/01 00:26:16;;;;;;;9.95;7.32;;;-2.50;99.20;;;;;;5002069;28;20029;-62
2022/03/01 00:28:42;;;;;;;16.90;7.88;;;-2.50;99.30;;;;;;4997099;28;20022;-58
2022/03/01 00:31:08;;;;;;;10.63;7.45;;;-2.50;98.90;;;;;;4993807;28;20576;-60
2022/03/01 00:33:33;;;;;;;13.27;7.40;;;-2.50;99.20;;;;;;4994863;28;20129;-60
2022/03/01 00:35:59;;;;;;;10.85;7.63;;;-2.50;99.90;;;;;;4997017;28;20121;-61
2022/03/01 00:38:25;;;;;;;12.05;7.80;;;-2.60;99.90;;;;;;4999669;28;20022;-61
2022/03/01 00:40:50;;;;;;;10.02;7.95;;;-2.60;99.90;;;;;;5003848;28;20053;-60
2022/03/01 00:43:16;;;;;;;12.20;8.38;;;-2.50;99.90;;;;;;4999766;28;20780;-60
2022/03/01 00:45:42;;;;;;;11.55;7.80;;;-2.50;99.90;;;;;;4995992;28;20022;-59
2022/03/01 00:48:08;;;;;;;9.25;7.97;;;-2.50;99.90;;;;;;4998021;28;20027;-60
2022/03/01 00:50:34;;;;;;;11.50;8.63;;;-2.40;99.90;;;;;;4993473;28;20466;-59
2022/03/01 00:52:59;;;;;;;13.05;6.95;;;-2.40;99.90;;;;;;4998468;28;20026;-60
2022/03/01 00:55:25;;;;;;;12.70;7.75;;;-2.40;99.60;;;;;;4996489;28;20659;-61
2022/03/01 00:57:51;;;;;;;10.82;7.63;;;-2.40;99.00;;;;;;4995792;28;20041;-59
2022/03/01 01:00:17;;;;;;;10.05;8.18;;;-2.40;98.70;;;;;;5002128;28;20034;-58
2022/03/01 01:02:42;;;;;;;14.45;7.93;;;-2.40;98.60;;;;;;5004238;28;20022;-58
2022/03/01 01:05:09;;;;;;;12.18;7.65;;;-2.40;98.50;;;;;;5004328;28;20105;-58
2022/03/01 01:07:34;;;;;;;11.57;8.30;;;-2.40;98.20;;;;;;5001359;28;20050;-58
2022/03/01 01:10:00;;;;;;;13.98;8.40;;;-2.40;97.80;;;;;;4999121;28;20112;-61
2022/03/01 01:12:26;;;;;;;13.80;7.97;;;-2.50;97.80;;;;;;5002254;28;20030;-61
2022/03/01 01:14:51;;;;;;;12.23;8.63;;;-2.50;97.90;;;;;;5001445;28;20125;-59
2022/03/01 01:17:17;;;;;;;12.15;9.18;;;-2.50;98.10;;;;;;5000988;28;20022;-61
2022/03/01 01:19:43;;;;;;;12.43;7.30;;;-2.50;98.40;;;;;;5006027;28;20028;-58
2022/03/01 01:24:56;;;;;;;11.25;8.63;;;-2.70;98.00;;;;;;5001362;28;20677;-59
2022/03/01 01:27:21;;;;;;;11.40;7.75;;;-2.70;98.10;;;;;;4998961;28;20030;-58
2022/03/01 01:29:47;;;;;;;13.07;8.60;;;-2.70;98.10;;;;;;5002381;28;20105;-62
2022/03/01 01:32:12;;;;;;;12.00;8.88;;;-2.70;98.40;;;;;;5002880;28;20390;-61
2022/03/01 01:34:38;;;;;;;11.32;8.35;;;-2.70;98.40;;;;;;5001397;28;20069;-60
2022/03/01 01:37:04;;;;;;;11.63;7.50;;;-2.70;98.70;;;;;;5001004;28;20029;-60
2022/03/01 01:39:30;;;;;;;12.15;7.95;;;-2.60;99.00;;;;;;5003224;28;20030;-60
2022/03/01 01:41:55;;;;;;;11.27;8.20;;;-2.60;98.80;;;;;;5003094;28;20557;-59
2022/03/01 01:44:21;;;;;;;12.20;7.63;;;-2.60;98.70;;;;;;5004499;28;20022;-61
2022/03/01 01:46:47;;;;;;;9.05;7.43;;;-2.60;98.60;;;;;;4997331;28;20122;-59
2022/03/01 01:49:12;;;;;;;11.70;7.82;;;-2.60;98.70;;;;;;5001412;28;20033;-60
2022/03/01 01:51:38;;;;;;;13.98;8.18;;;-2.60;98.80;;;;;;5001879;28;20035;-60
2022/03/01 01:54:04;;;;;;;14.27;9.73;;;-2.60;99.20;;;;;;4999963;28;20494;-60
2022/03/01 01:56:30;;;;;;;16.08;9.45;;;-2.50;99.10;;;;;;4999764;28;20033;-61
2022/03/01 01:58:56;;;;;;;10.60;8.32;;;-2.60;99.10;;;;;;5003687;28;20400;-62
2022/03/01 02:01:22;;;;;;;12.93;8.45;;;-2.60;99.00;;;;;;5000822;28;20029;-59
2022/03/01 02:03:47;;;;;;;9.20;7.55;;;-2.70;99.30;;;;;;5000653;28;20556;-59
2022/03/01 02:06:13;;;;;;;11.95;7.53;;;-2.70;99.40;;;;;;5002857;28;20116;-59
2022/03/01 02:08:38;;;;;;;12.35;8.60;;;-2.80;99.50;;;;;;5003524;28;20030;-58
2022/03/01 02:11:04;;;;;;;10.55;7.28;;;-2.80;99.50;;;;;;5003159;28;20110;-60
2022/03/01 02:13:30;;;;;;;12.98;8.70;;;-2.90;99.60;;;;;;5003250;28;20037;-58
2022/03/01 02:15:56;;;;;;;15.52;10.43;;;-2.90;99.60;;;;;;5000741;28;20053;-58
2022/03/01 02:18:22;;;;;;;13.20;10.30;;;-3.00;99.90;;;;;;4997590;28;20113;-60
2022/03/01 02:20:48;;;;;;;12.93;9.50;;;-3.10;99.90;;;;;;4999057;28;20022;-59
2022/03/01 02:23:13;;;;;;;11.68;9.35;;;-3.20;99.90;;;;;;5005067;28;20033;-60
2022/03/01 02:25:40;;;;;;;13.80;10.27;;;-3.30;99.90;;;;;;5005721;28;20061;-58
2022/03/01 02:28:06;;;;;;;11.20;8.95;;;-3.40;99.90;;;;;;5000205;28;20030;-59
2022/03/01 02:30:32;;;;;;;16.83;10.68;;;-3.50;99.90;;;;;;4998901;28;20103;-59
2022/03/01 02:32:58;;;;;;;16.85;10.60;;;-3.60;99.90;;;;;;5000280;28;20118;-59
2022/03/01 02:35:24;;;;;;;14.52;11.60;;;-3.70;99.90;;;;;;5000966;28;20121;-61
2022/03/01 02:37:50;;;;;;;16.15;10.02;;;-3.80;99.90;;;;;;5000343;28;20402;-59
2022/03/01 02:40:16;;;;;;;15.55;9.60;;;-3.80;99.90;;;;;;5002177;28;20026;-60
2022/03/01 02:42:44;;;;;;;21.10;10.25;;;-3.90;99.90;;;;;;5002083;28;20023;-60
2022/03/01 02:45:12;;;;;;;14.38;9.90;;;-4.00;99.90;;;;;;5015998;28;20359;-58
2022/03/01 02:47:38;;;;;;;13.30;9.80;;;-4.00;99.90;;;;;;5002399;28;20051;-60
2022/03/01 02:50:05;;;;;;;14.18;9.63;;;-4.00;99.90;;;;;;4996456;28;20062;-61
2022/03/01 02:52:31;;;;;;;16.85;9.85;;;-4.10;99.90;;;;;;4995544;28;20414;-60
2022/03/01 02:54:58;;;;;;;14.05;8.98;;;-4.10;99.90;;;;;;4999764;28;20505;-60
2022/03/01 02:57:24;;;;;;;14.38;9.43;;;-4.20;99.90;;;;;;4994888;28;20100;-58
2022/03/01 02:59:54;;;;;;;16.48;10.45;;;-4.20;99.90;;;;;;4996169;28;20939;-60
2022/03/01 03:02:20;;;;;;;14.90;11.07;;;-4.20;99.90;;;;;;5002570;28;20033;-58
2022/03/01 03:04:46;;;;;;;18.92;14.57;;;-4.30;99.90;;;;;;4992196;28;20026;-60
2022/03/01 03:07:12;;;;;;;23.77;13.57;;;-4.40;99.90;;;;;;5002372;28;20175;-60
2022/03/01 03:09:38;;;;;;;13.80;10.70;;;-4.40;99.90;;;;;;4996913;28;20022;-58
2022/03/01 03:12:05;;;;;;;15.93;10.32;;;-4.40;99.90;;;;;;5000718;28;20037;-58
2022/03/01 03:14:31;;;;;;;14.98;10.05;;;-4.40;99.90;;;;;;5001863;28;20034;-61
2022/03/01 03:16:57;;;;;;;16.15;10.30;;;-4.40;99.90;;;;;;4998104;28;20144;-57
2022/03/01 03:19:24;;;;;;;14.52;10.85;;;-4.40;99.90;;;;;;5001289;28;20381;-62
2022/03/01 03:21:50;;;;;;;10.50;8.60;;;-4.50;99.90;;;;;;4998830;28;20552;-60
2022/03/01 03:24:16;;;;;;;16.17;10.63;;;-4.50;99.90;;;;;;4995637;28;20034;-58
2022/03/01 03:26:42;;;;;;;16.48;11.45;;;-4.50;99.90;;;;;;4999062;28;20030;-59
2022/03/01 03:29:08;;;;;;;18.88;11.68;;;-4.50;99.90;;;;;;4999032;28;20026;-59
2022/03/01 03:31:41;;;;;;;15.30;10.93;;;-4.60;99.90;;;;;;4996854;28;20028;-60
2022/03/01 03:34:09;;;;;;;15.75;10.90;;;-4.60;99.90;;;;;;4995538;28;20038;-60
2022/03/01 03:36:37;;;;;;;16.65;10.38;;;-4.60;99.90;;;;;;4992780;28;20481;-58
2022/03/01 03:39:05;;;;;;;14.48;9.82;;;-4.70;99.90;;;;;;4995874;28;20068;-59
2022/03/01 03:41:31;;;;;;;14.45;10.32;;;-4.70;99.90;;;;;;4995438;28;20517;-59
2022/03/01 03:43:57;;;;;;;15.52;9.52;;;-4.80;99.90;;;;;;4997490;28;20038;-60
2022/03/01 03:46:23;;;;;;;13.88;10.30;;;-4.80;99.90;;;;;;5000713;28;20389;-59
2022/03/01 03:48:49;;;;;;;16.30;10.85;;;-4.80;99.90;;;;;;4998850;28;20084;-58
2022/03/01 03:51:15;;;;;;;18.15;10.30;;;-4.80;99.90;;;;;;4998118;28;20033;-61
2022/03/01 03:53:41;;;;;;;18.73;11.20;;;-4.80;99.90;;;;;;4998609;28;20437;-59
2022/03/01 03:56:06;;;;;;;18.67;11.65;;;-4.80;99.90;;;;;;4996937;28;20117;-59
2022/03/01 03:58:32;;;;;;;15.23;10.75;;;-4.80;99.90;;;;;;4997495;28;20108;-58
2022/03/01 04:00:58;;;;;;;19.73;10.73;;;-4.80;99.90;;;;;;4997182;28;20348;-58
2022/03/01 04:03:23;;;;;;;15.27;10.88;;;-4.80;99.90;;;;;;4994159;28;20030;-59
2022/03/01 04:05:50;;;;;;;18.52;11.18;;;-4.80;99.90;;;;;;5000834;28;20397;-58
2022/03/01 04:08:16;;;;;;;15.65;10.27;;;-4.80;99.90;;;;;;5004035;28;20026;-58
2022/03/01 04:10:43;;;;;;;13.38;10.45;;;-4.80;99.90;;;;;;4998036;28;20041;-58
2022/03/01 04:13:08;;;;;;;12.55;10.35;;;-4.70;99.90;;;;;;4998297;28;20026;-59
2022/03/01 04:15:34;;;;;;;18.45;10.88;;;-4.70;99.90;;;;;;4996767;28;20509;-59
2022/03/01 04:17:59;;;;;;;17.92;11.80;;;-4.70;99.90;;;;;;4999702;28;20064;-58
2022/03/01 04:20:25;;;;;;;18.38;12.00;;;-4.60;99.90;;;;;;4997196;28;20109;-60
2022/03/01 04:22:51;;;;;;;20.33;12.30;;;-4.60;99.90;;;;;;5003765;28;20493;-61
2022/03/01 04:25:17;;;;;;;18.90;12.18;;;-4.60;99.90;;;;;;5001852;28;20061;-58
2022/03/01 04:27:43;;;;;;;19.13;10.27;;;-4.60;99.90;;;;;;4999524;28;20026;-58
2022/03/01 04:30:11;;;;;;;24.48;11.07;;;-4.70;99.90;;;;;;4999789;28;20414;-59
2022/03/01 04:32:37;;;;;;;16.40;10.13;;;-4.80;99.90;;;;;;4999889;28;20070;-59
2022/03/01 04:35:03;;;;;;;18.70;10.90;;;-4.90;99.90;;;;;;4998291;28;20022;-58
2022/03/01 04:37:29;;;;;;;14.43;9.77;;;-5.00;99.90;;;;;;4999096;28;20038;-57
2022/03/01 04:39:54;;;;;;;14.35;10.10;;;-5.10;99.90;;;;;;5001708;28;20034;-58
2022/03/01 04:42:20;;;;;;;16.35;10.95;;;-5.10;99.90;;;;;;4997342;28;20057;-60
2022/03/01 04:44:45;;;;;;;21.30;12.98;;;-5.20;99.90;;;;;;4999617;28;20058;-58
2022/03/01 04:47:11;;;;;;;16.92;12.40;;;-5.30;99.90;;;;;;5002347;28;20029;-58
2022/03/01 04:49:37;;;;;;;16.95;11.82;;;-5.30;99.90;;;;;;5007570;28;20514;-57
2022/03/01 04:52:03;;;;;;;22.00;16.20;;;-5.40;99.90;;;;;;5001602;28;20117;-60
2022/03/01 04:54:28;;;;;;;25.30;17.75;;;-5.40;99.90;;;;;;5005549;28;20658;-59
2022/03/01 04:56:54;;;;;;;24.30;13.70;;;-5.40;99.90;;;;;;5005423;28;20124;-58
2022/03/01 04:59:20;;;;;;;18.67;12.77;;;-5.40;99.90;;;;;;5003695;28;20026;-60
2022/03/01 05:01:45;;;;;;;22.13;12.48;;;-5.20;99.90;;;;;;5001957;28;20486;-57
2022/03/01 05:04:11;;;;;;;15.52;11.05;;;-5.00;99.90;;;;;;5003489;28;20030;-60
2022/03/01 05:06:37;;;;;;;19.55;12.80;;;-5.00;99.90;;;;;;5000439;28;20037;-57
2022/03/01 05:09:02;;;;;;;23.88;12.07;;;-5.00;99.90;;;;;;4999871;28;20477;-59
2022/03/01 05:11:28;;;;;;;21.77;11.85;;;-5.00;99.90;;;;;;5005864;28;20401;-60
2022/03/01 05:13:54;;;;;;;14.43;11.35;;;-5.10;99.90;;;;;;5005015;28;20108;-58
2022/03/01 05:16:19;;;;;;;18.95;11.27;;;-5.10;99.90;;;;;;5001652;28;20560;-60
2022/03/01 05:18:45;;;;;;;15.32;10.98;;;-5.10;99.90;;;;;;5000736;28;20038;-57
2022/03/01 05:21:11;;;;;;;15.93;10.85;;;-5.20;99.90;;;;;;5003713;28;20490;-58
2022/03/01 05:23:36;;;;;;;31.08;13.63;;;-5.20;99.90;;;;;;5001688;28;20038;-60
2022/03/01 05:26:02;;;;;;;18.00;11.65;;;-5.30;99.90;;;;;;4995971;28;20073;-59
2022/03/01 05:28:27;;;;;;;20.85;11.70;;;-5.40;99.90;;;;;;5004088;28;20096;-58
2022/03/01 05:30:53;;;;;;;17.05;11.65;;;-5.40;99.90;;;;;;5002304;28;20030;-59
2022/03/01 05:33:19;;;;;;;15.77;10.90;;;-5.50;99.90;;;;;;5005154;28;20116;-59
2022/03/01 05:35:44;;;;;;;15.38;11.90;;;-5.60;99.90;;;;;;5000702;28;20551;-59
2022/03/01 05:38:10;;;;;;;18.77;12.40;;;-5.70;99.90;;;;;;5004123;28;20022;-61
2022/03/01 05:40:37;;;;;;;23.63;12.13;;;-5.70;99.90;;;;;;5002456;28;20034;-61
2022/03/01 05:43:05;;;;;;;21.55;12.30;;;-5.70;99.90;;;;;;4998604;28;20034;-57
2022/03/01 05:45:31;;;;;;;19.40;12.15;;;-5.70;99.90;;;;;;5002625;28;20031;-61
2022/03/01 05:47:56;;;;;;;23.23;12.48;;;-5.70;99.90;;;;;;4999218;28;20034;-58
2022/03/01 05:50:22;;;;;;;21.40;12.23;;;-5.70;99.90;;;;;;5002733;28;20029;-59
2022/03/01 05:52:49;;;;;;;23.98;11.43;;;-5.60;99.90;;;;;;5003545;28;20034;-59
2022/03/01 05:55:15;;;;;;;17.27;12.07;;;-5.60;99.90;;;;;;5003459;28;20026;-59
2022/03/01 05:57:41;;;;;;;14.57;11.98;;;-5.70;99.90;;;;;;4999190;28;20018;-61
2022/03/01 06:00:18;;;;;;;19.42;13.00;;;-5.70;99.90;;;;;;4999800;28;20421;-61
2022/03/01 06:02:45;;;;;;;25.65;13.13;;;-5.80;99.90;;;;;;4997028;28;20038;-57
2022/03/01 06:05:12;;;;;;;25.52;11.07;;;-5.80;99.90;;;;;;5000427;28;20030;-61
2022/03/01 06:07:38;;;;;;;22.15;14.48;;;-5.80;99.90;;;;;;5001774;28;20397;-60
2022/03/01 06:10:05;;;;;;;19.05;14.98;;;-5.90;99.90;;;;;;4998646;28;20026;-60
2022/03/01 06:12:30;;;;;;;22.55;13.25;;;-5.90;99.90;;;;;;5004336;28;20045;-59
2022/03/01 06:14:56;;;;;;;20.02;12.35;;;-5.90;99.90;;;;;;5003766;28;20038;-57
2022/03/01 06:17:21;;;;;;;17.75;12.70;;;-5.90;99.90;;;;;;5003405;28;20118;-61
2022/03/01 06:19:47;;;;;;;21.40;13.63;;;-5.80;99.90;;;;;;5002551;28;20113;-57
2022/03/01 06:22:13;;;;;;;20.98;13.32;;;-5.80;99.90;;;;;;4997927;28;20389;-58
2022/03/01 06:24:41;;;;;;;27.98;15.15;;;-5.70;99.90;;;;;;4997283;28;20026;-57
2022/03/01 06:27:07;;;;;;;23.83;14.48;;;-5.40;99.90;;;;;;5001009;28;20110;-58
2022/03/01 06:29:33;;;;;;;21.95;13.85;;;-4.70;99.90;;;;;;4997632;28;20105;-60
2022/03/01 06:31:59;;;;;;;21.40;11.23;;;-3.50;99.90;;;;;;5003162;28;20469;-59
2022/03/01 06:34:24;;;;;;;21.85;10.73;;;-2.20;99.90;;;;;;5001044;28;20030;-59
2022/03/01 06:36:50;;;;;;;17.40;9.38;;;-1.00;99.90;;;;;;5000618;28;20025;-58
2022/03/01 06:39:16;;;;;;;10.98;8.95;;;0.40;99.90;;;;;;4998415;28;20031;-61
2022/03/01 06:41:42;;;;;;;10.63;9.10;;;1.90;99.90;;;;;;4995331;28;20027;-61
2022/03/01 06:44:07;;;;;;;14.13;7.75;;;3.10;99.90;;;;;;4997126;28;20041;-59
2022/03/01 06:46:33;;;;;;;11.57;9.38;;;4.30;99.90;;;;;;5002654;28;20405;-61
2022/03/01 06:48:58;;;;;;;10.38;8.70;;;4.60;94.60;;;;;;4997067;28;20030;-59
2022/03/01 06:51:24;;;;;;;9.02;7.82;;;5.10;96.50;;;;;;5001212;28;20506;-59
2022/03/01 06:53:50;;;;;;;11.40;7.82;;;5.90;91.30;;;;;;5000476;28;20038;-61
2022/03/01 06:56:16;;;;;;;17.08;8.32;;;6.80;82.50;;;;;;5001596;28;20025;-59
2022/03/01 06:58:42;;;;;;;9.32;7.90;;;7.60;71.60;;;;;;5003382;28;20121;-61
2022/03/01 07:01:07;;;;;;;9.18;7.90;;;8.20;70.00;;;;;;4999183;28;20169;-63
2022/03/01 07:03:34;;;;;;;10.23;8.30;;;8.20;62.40;;;;;;4999774;28;20081;-59
2022/03/01 07:06:00;;;;;;;9.88;7.70;;;8.20;61.60;;;;;;5001535;28;20041;-64
2022/03/01 07:08:25;;;;;;;11.50;7.80;;;7.50;60.60;;;;;;5004858;28;20017;-60
2022/03/01 07:10:52;;;;;;;11.10;7.40;;;7.60;62.70;;;;;;5001316;28;20061;-60
2022/03/01 07:13:18;;;;;;;8.75;7.85;;;7.40;64.40;;;;;;5000099;28;20494;-60
2022/03/01 07:15:44;;;;;;;9.45;8.10;;;7.70;62.20;;;;;;4998949;28;20477;-60
2022/03/01 07:18:09;;;;;;;10.15;7.95;;;8.60;64.40;;;;;;4997497;28;20040;-60
2022/03/01 07:20:35;;;;;;;10.07;8.25;;;9.60;57.90;;;;;;5001721;28;20014;-60
2022/03/01 07:23:01;;;;;;;8.35;7.43;;;10.70;54.90;;;;;;5000150;28;20466;-60
2022/03/01 07:25:27;;;;;;;10.55;8.02;;;11.20;54.30;;;;;;5000283;28;20037;-60
2022/03/01 07:27:54;;;;;;;8.70;7.80;;;11.30;52.60;;;;;;4995358;28;20034;-63
2022/03/01 07:30:22;;;;;;;9.00;8.13;;;11.60;51.10;;;;;;4996123;28;20049;-60
2022/03/01 07:32:49;;;;;;;9.52;8.38;;;11.20;50.60;;;;;;4999063;28;20034;-61
2022/03/01 07:35:15;;;;;;;11.40;9.05;;;10.90;51.50;;;;;;4999935;28;20088;-63
2022/03/01 07:37:41;;;;;;;10.02;7.30;;;11.10;52.20;;;;;;5004505;28;20401;-61
2022/03/01 07:40:11;;;;;;;8.88;7.97;;;11.50;52.10;;;;;;4996896;28;20106;-61
2022/03/01 07:42:37;;;;;;;11.33;10.20;;;12.50;49.50;;;;;;4996052;28;20492;-64
2022/03/01 07:45:04;;;;;;;10.82;9.57;;;13.20;48.00;;;;;;5002575;28;20268;-61
2022/03/01 07:47:30;;;;;;;10.98;9.88;;;13.40;47.10;;;;;;5012057;28;20022;-61
2022/03/01 07:49:56;;;;;;;10.68;9.65;;;13.90;47.00;;;;;;4996885;28;20029;-59
2022/03/01 07:52:21;;;;;;;9.35;8.38;;;14.10;44.50;;;;;;4998866;28;20034;-61
2022/03/01 07:54:48;;;;;;;9.75;8.77;;;14.60;42.50;;;;;;5004783;28;20037;-58
2022/03/01 07:57:14;;;;;;;9.75;8.52;;;14.50;43.00;;;;;;5000329;28;20482;-61
2022/03/01 07:59:40;;;;;;;8.88;7.95;;;15.00;42.70;;;;;;4996857;28;20113;-60
2022/03/01 08:02:06;;;;;;;8.27;7.38;;;15.70;41.00;;;;;;4999582;28;20117;-62
2022/03/01 08:04:32;;;;;;;8.80;7.90;;;15.30;39.70;;;;;;5005311;28;20033;-61
2022/03/01 08:06:58;;;;;;;7.75;6.88;;;15.70;41.10;;;;;;4996951;28;20038;-58
2022/03/01 08:09:24;;;;;;;7.68;6.93;;;16.20;39.80;;;;;;5001419;28;20062;-59
2022/03/01 08:11:49;;;;;;;7.72;6.97;;;16.60;39.20;;;;;;4999938;28;20026;-58
2022/03/01 08:14:15;;;;;;;7.15;6.43;;;16.60;37.80;;;;;;5003331;28;20120;-59
2022/03/01 08:16:41;;;;;;;6.90;6.13;;;16.80;37.80;;;;;;5007474;28;20394;-58
2022/03/01 08:19:06;;;;;;;7.43;6.72;;;17.00;38.40;;;;;;5000878;28;20034;-62
2022/03/01 08:21:32;;;;;;;7.00;6.38;;;16.80;37.80;;;;;;4999159;28;20031;-58
2022/03/01 08:23:58;;;;;;;9.02;6.75;;;16.80;37.50;;;;;;4998987;28;20038;-60
2022/03/01 08:26:24;;;;;;;7.32;6.22;;;16.10;39.10;;;;;;5003199;28;20018;-60
2022/03/01 08:28:49;;;;;;;6.65;5.90;;;15.70;40.50;;;;;;5005931;28;20106;-61
2022/03/01 08:31:15;;;;;;;7.57;5.82;;;16.10;40.60;;;;;;4997951;28;20026;-64
2022/03/01 08:33:41;;;;;;;7.15;6.45;;;16.70;38.40;;;;;;4999634;28;20482;-62
2022/03/01 08:36:08;;;;;;;7.05;6.35;;;16.70;37.40;;;;;;4997825;28;20049;-61
2022/03/01 08:38:34;;;;;;;6.32;5.72;;;17.20;36.50;;;;;;5003375;28;20037;-58
2022/03/01 08:41:03;;;;;;;6.70;5.80;;;17.80;35.00;;;;;;5003268;28;20019;-58
2022/03/01 08:43:28;;;;;;;5.78;5.20;;;18.00;33.90;;;;;;5003633;28;20030;-58
2022/03/01 08:45:54;;;;;;;7.25;6.10;;;17.80;33.80;;;;;;4998692;28;20041;-60
2022/03/01 08:48:20;;;;;;;6.28;5.68;;;17.70;34.70;;;;;;4997883;28;20049;-60
2022/03/01 08:50:46;;;;;;;10.50;5.57;;;17.80;34.00;;;;;;5000331;28;20092;-57
2022/03/01 08:53:12;;;;;;;6.18;5.18;;;18.20;34.10;;;;;;5000429;28;20029;-57
2022/03/01 08:55:38;;;;;;;6.53;5.32;;;18.50;33.00;;;;;;5003249;28;20268;-57
2022/03/01 08:58:03;;;;;;;6.60;4.80;;;17.70;33.10;;;;;;5008331;28;20778;-58
2022/03/01 09:00:29;;;;;;;9.13;6.13;;;17.10;34.10;;;;;;5006314;28;20026;-58
2022/03/01 09:02:56;;;;;;;8.23;6.25;;;17.60;34.20;;;;;;4998147;28;20177;-59
2022/03/01 09:05:23;;;;;;;6.68;6.07;;;17.80;34.90;;;;;;4996148;28;20101;-61
2022/03/01 09:07:48;;;;;;;9.70;6.05;;;17.80;33.10;;;;;;4997012;28;20017;-62
2022/03/01 09:10:14;;;;;;;6.90;6.20;;;18.00;33.60;;;;;;5005569;28;20109;-58
2022/03/01 09:12:40;;;;;;;8.40;7.68;;;18.70;32.70;;;;;;5001188;28;20029;-62
2022/03/01 09:15:06;;;;;;;7.93;7.22;;;19.00;32.50;;;;;;5001767;28;20397;-58
2022/03/01 09:17:32;;;;;;;6.43;5.85;;;19.30;31.20;;;;;;5000693;28;20026;-59
2022/03/01 09:19:58;;;;;;;7.55;6.18;;;19.50;32.30;;;;;;5003101;28;20091;-58
2022/03/01 09:22:23;;;;;;;6.88;5.63;;;19.50;31.10;;;;;;5004407;28;20030;-57
2022/03/01 09:24:50;;;;;;;7.43;5.53;;;19.60;31.60;;;;;;5000784;28;20038;-61
2022/03/01 09:27:15;;;;;;;5.80;5.30;;;20.00;31.70;;;;;;4998062;28;20023;-60
2022/03/01 09:29:41;;;;;;;7.32;5.85;;;19.90;31.40;;;;;;5003591;28;20839;-60
2022/03/01 09:32:07;;;;;;;6.30;5.10;;;19.70;30.90;;;;;;5002925;28;20038;-58
2022/03/01 09:34:32;;;;;;;6.38;5.82;;;19.40;30.90;;;;;;5002068;28;20030;-60
2022/03/01 09:36:58;;;;;;;7.10;6.38;;;18.80;31.10;;;;;;4998337;28;20446;-61
2022/03/01 09:39:24;;;;;;;5.88;5.13;;;18.60;32.70;;;;;;4998768;28;20034;-58
2022/03/01 09:41:51;;;;;;;6.28;5.68;;;18.80;32.60;;;;;;4998526;28;20022;-59
2022/03/01 09:44:18;;;;;;;7.28;5.18;;;19.20;33.00;;;;;;5000424;28;20030;-59
2022/03/01 09:46:44;;;;;;;6.10;5.50;;;18.80;33.00;;;;;;5004986;28;20026;-57
2022/03/01 09:49:10;;;;;;;5.72;5.13;;;19.00;33.60;;;;;;5000296;28;20030;-57
2022/03/01 09:51:39;;;;;;;6.20;5.60;;;19.50;32.20;;;;;;4997091;28;20033;-57
2022/03/01 09:54:04;;;;;;;6.55;5.68;;;18.80;31.20;;;;;;5000528;28;20113;-59
2022/03/01 09:56:30;;;;;;;6.15;5.53;;;18.80;32.80;;;;;;5001404;28;20161;-60
2022/03/01 09:58:57;;;;;;;8.48;5.15;;;18.80;32.00;;;;;;5003045;28;20053;-57
2022/03/01 10:01:24;;;;;;;5.35;4.85;;;18.50;33.10;;;;;;5005214;28;20515;-60
2022/03/01 10:03:51;;;;;;;9.02;5.50;;;18.30;32.30;;;;;;5003787;28;20028;-58
2022/03/01 10:06:19;;;;;;;6.07;4.32;;;17.70;31.50;;;;;;4996210;28;20026;-59
2022/03/01 10:08:56;;;;;;;5.28;4.63;;;17.50;32.60;;;;;;4998476;28;20093;-58
2022/03/01 10:11:23;;;;;;;7.10;4.38;;;17.40;32.20;;;;;;4995909;28;20018;-58
2022/03/01 10:13:56;;;;;;;6.45;5.63;;;17.70;32.50;;;;;;4999036;28;20038;-60
2022/03/01 10:16:22;;;;;;;6.80;6.07;;;17.70;32.20;;;;;;5002335;28;20184;-58
2022/03/01 10:18:55;;;;;;;6.40;4.80;;;17.70;33.30;;;;;;5001061;28;20549;-60
2022/03/01 10:21:22;;;;;;;5.45;4.78;;;18.00;32.40;;;;;;5001039;28;20022;-58
2022/03/01 10:23:53;;;;;;;5.35;4.85;;;18.50;34.30;;;;;;5001364;28;20021;-57
2022/03/01 10:26:25;;;;;;;9.93;5.47;;;19.00;33.50;;;;;;5000281;28;20073;-57
2022/03/01 10:28:52;;;;;;;6.28;4.88;;;19.10;33.40;;;;;;5000413;28;20019;-57
2022/03/01 10:31:25;;;;;;;6.55;5.13;;;19.90;32.40;;;;;;4997309;28;20023;-57
2022/03/01 10:33:56;;;;;;;7.10;4.97;;;19.50;30.00;;;;;;5001043;28;20026;-58
2022/03/01 10:36:24;;;;;;;7.22;5.15;;;18.80;30.70;;;;;;4997035;28;20030;-58
2022/03/01 10:39:13;;;;;;;6.20;5.60;;;17.10;32.10;;;;;;5005838;28;20101;-61
2022/03/01 10:41:44;;;;;;;6.45;4.93;;;16.60;34.20;;;;;;5000676;28;20025;-58
2022/03/01 10:44:17;;;;;;;6.18;4.88;;;15.00;34.60;;;;;;4998390;28;20081;-59
2022/03/01 10:46:55;;;;;;;6.82;6.07;;;14.80;36.20;;;;;;4996298;28;20062;-58
2022/03/01 10:49:28;;;;;;;6.72;4.38;;;14.90;37.60;;;;;;4997480;28;20023;-60
2022/03/01 10:52:03;;;;;;;6.30;5.50;;;15.10;37.30;;;;;;4999709;28;20529;-58
2022/03/01 10:54:47;;;;;;;6.75;5.45;;;14.90;35.80;;;;;;5000540;28;20045;-57
2022/03/01 10:57:23;;;;;;;7.57;5.43;;;14.60;37.30;;;;;;4997132;28;20493;-58
2022/03/01 10:59:50;;;;;;;6.40;5.80;;;14.50;36.70;;;;;;5002722;28;20390;-58
2022/03/01 11:02:19;;;;;;;6.45;5.85;;;14.30;37.40;;;;;;5001174;28;20107;-58
2022/03/01 11:04:46;;;;;;;6.10;5.30;;;13.70;38.20;;;;;;4999582;28;20030;-58
2022/03/01 11:07:12;;;;;;;6.72;5.13;;;13.60;39.30;;;;;;5001515;28;20026;-59
2022/03/01 11:09:39;;;;;;;5.55;4.82;;;13.30;39.20;;;;;;5000971;28;20144;-57
2022/03/01 11:12:07;;;;;;;6.85;4.93;;;13.30;39.50;;;;;;4996140;28;20106;-57
2022/03/01 11:14:41;;;;;;;7.00;5.32;;;13.30;41.70;;;;;;4998072;28;20023;-58
2022/03/01 11:17:37;;;;;;;7.22;5.57;;;12.90;39.50;;;;;;4997211;28;20101;-58
2022/03/01 11:20:09;;;;;;;6.35;5.15;;;12.60;41.20;;;;;;5001166;28;20049;-57
2022/03/01 11:22:53;;;;;;;7.45;5.78;;;12.00;40.80;;;;;;4999252;28;20381;-58
2022/03/01 11:25:24;;;;;;;6.78;5.38;;;11.80;41.50;;;;;;5000742;28;20026;-59
2022/03/01 11:27:52;;;;;;;6.43;5.30;;;11.10;42.20;;;;;;4997653;28;20018;-57
2022/03/01 11:30:26;;;;;;;6.78;6.10;;;10.80;43.20;;;;;;5004999;28;20026;-60
2022/03/01 11:32:56;;;;;;;6.47;5.65;;;10.90;43.30;;;;;;4999296;28;20034;-57
2022/03/01 11:35:24;;;;;;;8.10;5.55;;;10.90;43.40;;;;;;4999942;28;20018;-60
2022/03/01 11:38:01;;;;;;;6.00;5.38;;;10.80;43.00;;;;;;4999989;28;20022;-57
2022/03/01 11:40:30;;;;;;;6.65;5.82;;;10.30;43.50;;;;;;4992568;28;20096;-60
2022/03/01 11:43:13;;;;;;;6.07;5.03;;;10.30;45.50;;;;;;4997784;28;20104;-57
2022/03/01 11:45:45;;;;;;;7.68;5.43;;;10.30;44.30;;;;;;4997842;28;20084;-57
2022/03/01 11:48:13;;;;;;;;;;;10.40;45.30;;;;;;4999186;28;20062;-58
2022/03/01 11:50:44;;;;;;;6.15;5.30;;;9.80;45.10;;;;;;5013558;28;19910;-59
2022/03/01 11:53:12;;;;;;;7.40;5.35;;;9.70;46.20;;;;;;4994855;28;20497;-60
2022/03/01 11:55:43;;;;;;;6.20;5.32;;;10.10;45.80;;;;;;4998232;28;20047;-59
2022/03/01 11:58:10;;;;;;;6.65;5.93;;;9.60;44.90;;;;;;4993874;28;20093;-57
2022/03/01 12:00:39;;;;;;;6.97;4.85;;;9.70;47.30;;;;;;5000412;28;20033;-57
2022/03/01 12:03:08;;;;;;;6.40;5.55;;;10.00;46.60;;;;;;5003320;28;20034;-56
2022/03/01 12:05:35;;;;;;;6.03;5.43;;;10.50;45.50;;;;;;5000690;28;20032;-59
2022/03/01 12:08:05;;;;;;;6.10;5.40;;;11.20;46.50;;;;;;5002865;28;20101;-57
2022/03/01 12:10:31;;;;;;;8.57;5.38;;;11.60;45.10;;;;;;4996029;28;20034;-58
2022/03/01 12:12:57;;;;;;;6.72;5.47;;;12.00;43.70;;;;;;5003906;28;20062;-56
2022/03/01 12:15:34;;;;;;;8.25;5.22;;;12.00;43.90;;;;;;4995339;28;20030;-58
2022/03/01 12:18:15;;;;;;;5.68;5.07;;;12.30;42.70;;;;;;4995471;28;20038;-60
2022/03/01 12:20:44;;;;;;;5.32;4.43;;;12.90;42.40;;;;;;4996200;28;20033;-59
2022/03/01 12:23:11;;;;;;;4.82;4.32;;;13.00;41.90;;;;;;4998051;28;20030;-61
2022/03/01 12:25:39;;;;;;;5.43;4.53;;;13.50;41.50;;;;;;5000567;28;20505;-59
2022/03/01 12:28:07;;;;;;;6.20;4.75;;;13.00;38.80;;;;;;5002168;28;20038;-61
2022/03/01 12:30:42;;;;;;;4.60;4.20;;;12.30;39.20;;;;;;4995635;28;20041;-61
2022/03/01 12:33:13;;;;;;;5.05;4.55;;;11.70;41.00;;;;;;4997400;28;20044;-59
2022/03/01 12:35:39;;;;;;;;;;;12.10;43.80;;;;;;4996923;28;20027;-60
2022/03/01 12:38:11;;;;;;;4.50;4.10;;;13.00;41.70;;;;;;4996536;28;20362;-61
2022/03/01 12:40:37;;;;;;;;;;;13.50;40.00;;;;;;4999621;28;20030;-62
2022/03/01 12:43:06;;;;;;;6.47;4.65;;;13.30;39.00;;;;;;4997529;28;19952;-61